INFORMACIÓN METAR y TAF
METAR FOR LGIR
ADDS - METARS form results

(0626 UTC 17 September 2019)
Data provider http://aviationweather.gov/metar/data/
 
METAR text: LGIR 170620Z VRB03KT CAVOK 24/14 Q1015 NOSIG
Conditions at: LGIR (IRAKLION (CIV/AF, GR) observed 0620 UTC 17 September 2019
Temperature: 24.0°C (75°F)
Dewpoint: 14.0°C (57°F) [RH = 54%]
Pressure (altimeter): 29.97 inches Hg (1015.0 mb)
Winds: variable direction winds at 3 MPH (3 knots; 1.5 m/s)
Visibility: 6 or more miles (10+ km)
Ceiling: ceiling and visibility are OK
Clouds: unknown
Weather: no significant weather observed at this time

METAR text: LGIR 170550Z 16006KT CAVOK 22/13 Q1015 NOSIG
Conditions at: LGIR (IRAKLION (CIV/AF, GR) observed 0550 UTC 17 September 2019
Temperature: 22.0°C (72°F)
Dewpoint: 13.0°C (55°F) [RH = 57%]
Pressure (altimeter): 29.97 inches Hg (1015.0 mb)
Winds: from the SSE (160 degrees) at 7 MPH (6 knots; 3.1 m/s)
Visibility: 6 or more miles (10+ km)
Ceiling: ceiling and visibility are OK
Clouds: unknown
Weather: no significant weather observed at this time

Forecast for: LGIR (IRAKLION (CIV/AF, GR)
Text: TAF LGIR 170500Z 1706/1806 17010KT 9999 FEW020
Forecast period: 0600 UTC 17 September 2019 to 0600 UTC 18 September 2019
Forecast type: FROM: standard forecast or significant change
Winds: from the S (170 degrees) at 12 MPH (10 knots; 5.1 m/s)
Visibility: 6 or more miles 10+ km)
Ceiling: at least 12,000 feet AGL
Clouds: few clouds at 2000 feet AGL
Weather: no significant weather forecast for this period

 MAPA DE AEROPUERTO

 INFORMACIÓN DE PISTA
Pista 09 Longitud 8800 ft Ancho 148 ft
Elevación 78 ft Umbral desplazado 1565 ft Rumbo de pista 95
Pista 27 Longitud 8800 ft Ancho 148 ft
Elevación 82 ft Umbral desplazado 0 ft Rumbo de pista 275
Pista 12 Longitud 5138 ft Ancho 164 ft
Elevación 57 ft Umbral desplazado 499 ft Rumbo de pista 126
Pista 30 Longitud 5138 ft Ancho 164 ft
Elevación 115 ft Umbral desplazado 0 ft Rumbo de pista 306
Pista 18 Longitud 2559 ft Ancho 131 ft
Elevación 78 ft Umbral desplazado 0 ft Rumbo de pista 180
Pista 36 Longitud 2559 ft Ancho 131 ft
Elevación 115 ft Umbral desplazado 328 ft Rumbo de pista 0

 FRECUANCIAS DEL AEROPUERTO
Tipo A/G Nombre KAZANTZAKI Frecuencia 563.7 MHZ
Tipo APP Nombre IRAKLION A Frecuencia 123.975 MHZ
Tipo ATIS Nombre ATIS Frecuencia 127.55 MHZ
Tipo DIR Nombre IRAKLION D Frecuencia 118.025 MHZ
Tipo GND Nombre KAZANTZAKI Frecuencia 121.7 MHZ
Tipo TRSA Nombre IRAKLION R Frecuencia 123.975 MHZ
Tipo TWR Nombre KAZANTZAKI Frecuencia 120.85 MHZ

 RADIO AYUDAS DEL AEROPUERTO
Tipo NDB Nombre Iraklion Frecuencia 431 KHZ
Tipo VOR-DME Nombre Iraklion Frecuencia 108800 KHZ
Tipo TACAN Nombre Iraklion Frecuencia 108300 KHZ



Powered by Virtual Airlines Manager [v2.6.2]